createdAt,value
2022-09-16T00:00:34.877Z,96.60
2022-09-16T00:03:02.782Z,96.60
2022-09-16T00:05:30.535Z,96.40
2022-09-16T00:07:58.187Z,96.30
2022-09-16T00:10:26.039Z,96.40
2022-09-16T00:12:53.704Z,96.30
2022-09-16T00:15:21.435Z,96.30
2022-09-16T00:17:49.370Z,96.10
2022-09-16T00:20:17.031Z,96.00
2022-09-16T00:22:44.720Z,96.00
2022-09-16T00:25:12.443Z,96.10
2022-09-16T00:27:41.305Z,95.80
2022-09-16T00:30:18.528Z,95.60
2022-09-16T00:32:46.205Z,95.60
2022-09-16T00:35:18.059Z,95.50
2022-09-16T00:37:45.944Z,95.50
2022-09-16T00:40:13.629Z,95.60
2022-09-16T00:42:44.244Z,95.50
2022-09-16T00:45:18.801Z,95.60
2022-09-16T00:47:53.955Z,95.80
2022-09-16T00:50:48.359Z,95.60
2022-09-16T00:53:29.738Z,95.70
2022-09-16T00:56:00.574Z,95.50
2022-09-16T00:58:48.743Z,95.60
2022-09-16T01:01:16.769Z,95.50
2022-09-16T01:03:54.592Z,95.50
2022-09-16T01:06:24.565Z,95.60
2022-09-16T01:08:52.810Z,95.70
2022-09-16T01:11:20.636Z,95.70
2022-09-16T01:13:54.207Z,95.60
2022-09-16T01:16:39.012Z,95.60
2022-09-16T01:19:26.483Z,95.50
2022-09-16T01:22:37.107Z,95.40
2022-09-16T01:25:31.340Z,95.60
2022-09-16T01:28:21.713Z,95.50
2022-09-16T01:31:00.334Z,95.50
2022-09-16T01:33:58.599Z,95.60
2022-09-16T01:37:09.347Z,95.60
2022-09-16T01:40:15.279Z,95.50
2022-09-16T01:42:48.889Z,95.60
2022-09-16T01:45:42.324Z,95.60
2022-09-16T01:48:17.417Z,95.50
2022-09-16T01:51:00.768Z,95.50
2022-09-16T01:53:53.111Z,95.50
2022-09-16T01:56:49.011Z,95.50
2022-09-16T01:59:26.704Z,95.60
2022-09-16T02:02:22.149Z,95.70
2022-09-16T02:04:57.886Z,95.80
2022-09-16T02:07:31.395Z,95.80
2022-09-16T02:10:06.839Z,95.80
2022-09-16T02:12:40.648Z,95.90
2022-09-16T02:15:12.451Z,95.90
2022-09-16T02:17:47.734Z,96.10
2022-09-16T02:20:19.974Z,96.10
2022-09-16T02:22:59.258Z,96.20
2022-09-16T02:25:31.516Z,96.30
2022-09-16T02:28:03.472Z,96.40
2022-09-16T02:30:32.452Z,96.50
2022-09-16T02:33:06.481Z,96.60
2022-09-16T02:35:41.628Z,96.70
2022-09-16T02:38:22.621Z,96.70
2022-09-16T02:41:03.695Z,96.80
2022-09-16T02:43:42.143Z,97.00
2022-09-16T02:46:19.691Z,97.10
2022-09-16T02:49:14.670Z,97.20
2022-09-16T02:51:51.722Z,97.70
2022-09-16T02:54:22.600Z,97.50
2022-09-16T02:56:50.327Z,97.70
2022-09-16T02:59:18.419Z,97.90
2022-09-16T03:01:47.202Z,97.90
2022-09-16T03:04:17.684Z,98.00
2022-09-16T03:06:46.203Z,98.10
2022-09-16T03:09:15.458Z,98.40
2022-09-16T03:12:04.738Z,98.50
2022-09-16T03:14:57.193Z,98.70
2022-09-16T03:17:57.201Z,98.80
2022-09-16T03:20:52.815Z,99.10
2022-09-16T03:23:28.162Z,99.10
2022-09-16T03:26:14.091Z,99.10
2022-09-16T03:28:50.732Z,99.20
2022-09-16T03:31:33.092Z,99.30
2022-09-16T03:34:13.893Z,99.40
2022-09-16T03:36:44.960Z,99.40
2022-09-16T03:39:13.306Z,99.90
2022-09-16T03:41:42.877Z,99.60
2022-09-16T03:44:10.548Z,99.60
2022-09-16T03:46:39.480Z,99.70
2022-09-16T03:49:07.146Z,99.80
2022-09-16T03:51:34.787Z,99.80
2022-09-16T03:54:04.022Z,99.80
2022-09-16T03:56:31.723Z,99.80
2022-09-16T03:59:01.487Z,99.80
2022-09-16T04:01:30.445Z,99.70
2022-09-16T04:03:58.189Z,99.70
2022-09-16T04:06:25.999Z,99.70
2022-09-16T04:08:53.931Z,99.70
2022-09-16T04:11:24.761Z,99.70
2022-09-16T04:13:52.429Z,99.70
2022-09-16T04:16:22.091Z,99.70
2022-09-16T04:18:50.193Z,99.70
2022-09-16T04:21:19.202Z,99.80
2022-09-16T04:23:48.972Z,99.70
2022-09-16T04:26:19.743Z,99.70
2022-09-16T04:28:48.084Z,99.70
2022-09-16T04:31:18.588Z,99.70
2022-09-16T04:33:46.224Z,99.80
2022-09-16T04:36:16.762Z,99.80
2022-09-16T04:38:48.042Z,99.80
2022-09-16T04:41:29.427Z,99.80
2022-09-16T04:43:58.966Z,99.80
2022-09-16T04:46:28.488Z,99.90
2022-09-16T04:48:57.332Z,99.90
2022-09-16T04:51:29.116Z,99.90
2022-09-16T04:53:58.089Z,99.90
2022-09-16T04:56:31.876Z,99.90
2022-09-16T04:59:02.730Z,99.90
2022-09-16T05:01:37.580Z,99.90
2022-09-16T05:04:07.517Z,99.90
2022-09-16T05:06:38.585Z,99.90
2022-09-16T05:09:06.888Z,99.90
2022-09-16T05:11:37.925Z,99.90
2022-09-16T05:14:09.236Z,99.90
2022-09-16T05:16:36.911Z,99.90
2022-09-16T05:19:16.167Z,99.90
2022-09-16T05:21:43.862Z,99.90
2022-09-16T05:24:13.474Z,99.90
2022-09-16T05:26:50.427Z,99.90
2022-09-16T05:29:18.105Z,99.90
2022-09-16T05:31:47.795Z,99.90
2022-09-16T05:34:17.603Z,99.90
2022-09-16T05:36:48.049Z,99.90
2022-09-16T05:39:25.892Z,99.90
2022-09-16T05:41:59.816Z,99.90
2022-09-16T05:44:38.227Z,99.90
2022-09-16T05:47:05.992Z,99.90
2022-09-16T05:49:33.915Z,99.90
2022-09-16T05:52:03.980Z,99.90
2022-09-16T05:54:31.789Z,99.90
2022-09-16T05:57:03.284Z,99.90
2022-09-16T05:59:33.865Z,99.90
2022-09-16T06:02:05.870Z,99.90
2022-09-16T06:04:38.821Z,99.90
2022-09-16T06:07:07.344Z,99.90
2022-09-16T06:09:34.964Z,99.90
2022-09-16T06:12:06.253Z,99.90
2022-09-16T06:14:34.081Z,99.90
2022-09-16T06:17:08.197Z,99.90
2022-09-16T06:19:35.893Z,99.90
2022-09-16T06:22:03.535Z,99.90
2022-09-16T06:24:37.348Z,99.90
2022-09-16T06:27:06.359Z,99.90
2022-09-16T06:29:34.487Z,99.90
2022-09-16T06:32:03.254Z,99.90
2022-09-16T06:34:31.062Z,99.90
2022-09-16T06:37:06.305Z,99.90
2022-09-16T06:39:34.025Z,99.90
2022-09-16T06:42:01.961Z,99.90
2022-09-16T06:44:41.801Z,99.90
2022-09-16T06:47:12.443Z,99.90
2022-09-16T06:49:42.023Z,99.90
2022-09-16T06:52:11.824Z,99.90
2022-09-16T06:54:39.521Z,99.90
2022-09-16T06:57:11.954Z,99.90
2022-09-16T06:59:40.636Z,99.90
2022-09-16T07:02:12.826Z,99.90
2022-09-16T07:04:40.990Z,99.90
2022-09-16T07:07:11.145Z,99.90
2022-09-16T07:09:40.506Z,99.90
2022-09-16T07:12:11.074Z,99.90
2022-09-16T07:14:38.942Z,99.90
2022-09-16T07:17:09.685Z,99.90
2022-09-16T07:19:39.091Z,99.90
2022-09-16T07:22:08.494Z,99.90
2022-09-16T07:24:36.740Z,99.90
2022-09-16T07:27:06.926Z,99.90
2022-09-16T07:29:34.706Z,99.90
2022-09-16T07:32:05.637Z,99.90
2022-09-16T07:34:33.713Z,99.90
2022-09-16T07:37:01.262Z,99.80
2022-09-16T07:39:29.110Z,99.50
2022-09-16T07:41:57.313Z,99.40
2022-09-16T07:44:26.281Z,99.30
2022-09-16T07:46:53.924Z,99.30
2022-09-16T07:49:22.578Z,99.10
2022-09-16T07:51:50.382Z,98.90
2022-09-16T07:54:20.190Z,98.60
2022-09-16T07:56:48.271Z,98.40
2022-09-16T07:59:21.431Z,98.00
2022-09-16T08:01:52.422Z,98.00
2022-09-16T08:04:20.759Z,97.90
2022-09-16T08:06:53.468Z,98.00
2022-09-16T08:09:41.078Z,97.80
2022-09-16T08:12:11.236Z,97.90
2022-09-16T08:14:40.041Z,97.90
2022-09-16T08:17:19.203Z,97.80
2022-09-16T08:19:46.808Z,96.90
2022-09-16T08:22:17.753Z,97.40
2022-09-16T08:24:45.655Z,97.30
2022-09-16T08:27:16.618Z,96.90
2022-09-16T08:29:44.174Z,96.60
2022-09-16T08:32:15.498Z,96.50
2022-09-16T08:34:46.042Z,96.30
2022-09-16T08:37:15.168Z,96.20
2022-09-16T08:39:44.373Z,95.90
2022-09-16T08:42:50.459Z,95.90
2022-09-16T08:45:32.219Z,94.80
2022-09-16T08:48:14.168Z,94.60
2022-09-16T08:50:47.232Z,95.10
2022-09-16T08:53:27.746Z,95.00
2022-09-16T08:55:57.566Z,94.90
2022-09-16T08:58:38.276Z,94.00
2022-09-16T09:01:34.146Z,95.00
2022-09-16T09:04:03.034Z,94.50
2022-09-16T09:07:00.656Z,94.90
2022-09-16T09:09:43.115Z,93.00
2022-09-16T09:12:33.898Z,92.30
2022-09-16T09:15:16.837Z,93.10
2022-09-16T09:18:15.868Z,91.10
2022-09-16T09:21:09.156Z,90.70
2022-09-16T09:23:45.025Z,91.20
2022-09-16T09:26:52.711Z,88.00
2022-09-16T09:29:29.896Z,84.50
2022-09-16T09:32:49.103Z,88.40
2022-09-16T09:35:33.457Z,84.30
2022-09-16T09:38:19.536Z,81.20
2022-09-16T09:40:59.399Z,82.60
2022-09-16T09:43:56.651Z,85.10
2022-09-16T09:46:35.588Z,85.20
2022-09-16T09:49:25.036Z,86.70
2022-09-16T09:52:02.268Z,85.50
2022-09-16T09:54:35.202Z,87.30
2022-09-16T09:57:47.188Z,86.70
2022-09-16T10:00:18.856Z,85.40
2022-09-16T10:02:52.937Z,87.20
2022-09-16T10:05:32.709Z,86.90
2022-09-16T10:08:24.057Z,87.30
2022-09-16T10:11:05.716Z,82.40
2022-09-16T10:13:33.665Z,83.30
2022-09-16T10:16:21.274Z,84.20
2022-09-16T10:19:25.843Z,80.40
2022-09-16T10:22:17.916Z,80.10
2022-09-16T10:24:59.513Z,82.10
2022-09-16T10:27:40.774Z,78.10
2022-09-16T10:30:19.921Z,78.40
2022-09-16T10:32:55.684Z,77.00
2022-09-16T10:35:38.664Z,78.50
2022-09-16T10:38:17.066Z,76.30
2022-09-16T10:41:32.673Z,78.80
2022-09-16T10:44:04.075Z,73.90
2022-09-16T10:46:55.281Z,77.00
2022-09-16T10:50:07.589Z,77.70
2022-09-16T10:52:46.188Z,75.00
2022-09-16T10:55:48.451Z,73.70
2022-09-16T10:58:20.179Z,70.80
2022-09-16T11:01:00.840Z,72.80
2022-09-16T11:04:06.406Z,68.30
2022-09-16T11:07:07.792Z,67.90
2022-09-16T11:10:05.138Z,67.60
2022-09-16T11:13:00.554Z,66.20
2022-09-16T11:15:37.407Z,64.90
2022-09-16T11:18:16.191Z,66.30
2022-09-16T11:21:27.936Z,67.80
2022-09-16T11:24:17.510Z,67.60
2022-09-16T11:27:22.919Z,69.20
2022-09-16T11:30:04.693Z,67.70
2022-09-16T11:33:08.229Z,68.50
2022-09-16T11:36:07.639Z,66.00
2022-09-16T11:39:12.167Z,67.00
2022-09-16T11:42:01.667Z,69.00
2022-09-16T11:44:40.338Z,69.90
2022-09-16T11:47:22.303Z,65.90
2022-09-16T11:50:41.111Z,66.10
2022-09-16T11:54:00.307Z,66.50
2022-09-16T11:56:59.983Z,67.60
2022-09-16T11:59:41.313Z,66.60
2022-09-16T12:02:29.655Z,68.30
2022-09-16T12:05:20.212Z,65.20
2022-09-16T12:08:13.092Z,67.20
2022-09-16T12:11:15.123Z,66.60
2022-09-16T12:14:07.368Z,67.40
2022-09-16T12:16:42.763Z,68.10
2022-09-16T12:19:25.579Z,68.90
2022-09-16T12:22:00.468Z,68.10
2022-09-16T12:24:45.213Z,66.90
2022-09-16T12:27:25.833Z,66.10
2022-09-16T12:30:03.120Z,67.10
2022-09-16T12:32:55.557Z,66.50
2022-09-16T12:35:34.655Z,63.40
2022-09-16T12:38:03.392Z,66.00
2022-09-16T12:40:50.421Z,66.70
2022-09-16T12:43:40.394Z,67.80
2022-09-16T12:46:32.092Z,66.60
2022-09-16T12:49:45.168Z,68.00
2022-09-16T12:52:27.941Z,64.40
2022-09-16T12:55:25.246Z,63.60
2022-09-16T12:58:40.767Z,63.10
2022-09-16T13:01:25.982Z,63.10
2022-09-16T13:04:18.699Z,64.50
2022-09-16T13:06:52.625Z,65.70
2022-09-16T13:09:38.734Z,66.30
2022-09-16T13:15:42.736Z,64.20
2022-09-16T13:18:21.208Z,66.70
2022-09-16T13:20:54.085Z,66.90
2022-09-16T13:23:32.724Z,66.30
2022-09-16T13:26:09.027Z,66.00
2022-09-16T13:28:54.202Z,66.40
2022-09-16T13:31:34.159Z,66.80
2022-09-16T13:37:04.177Z,67.70
2022-09-16T13:39:38.892Z,67.40
2022-09-16T13:42:23.641Z,67.30
2022-09-16T13:44:51.567Z,66.90
2022-09-16T13:47:32.121Z,67.10
2022-09-16T13:50:17.487Z,66.50
2022-09-16T13:52:45.235Z,67.20
2022-09-16T13:55:35.833Z,67.40
2022-09-16T13:59:10.227Z,66.00
2022-09-16T14:01:59.014Z,66.90
2022-09-16T14:05:19.334Z,67.30
2022-09-16T14:08:21.448Z,67.30
2022-09-16T14:10:59.355Z,67.30
2022-09-16T14:14:06.947Z,67.30
2022-09-16T14:16:43.343Z,67.40
2022-09-16T14:19:23.809Z,68.00
2022-09-16T14:22:04.080Z,68.10
2022-09-16T14:24:46.165Z,67.90
2022-09-16T14:27:21.478Z,68.00
2022-09-16T14:30:02.787Z,67.40
2022-09-16T14:32:45.720Z,66.60
2022-09-16T14:35:36.226Z,66.50
2022-09-16T14:38:14.192Z,65.70
2022-09-16T14:40:58.111Z,67.40
2022-09-16T14:43:26.931Z,67.70
2022-09-16T14:48:40.860Z,66.30
2022-09-16T14:51:30.484Z,66.30
2022-09-16T14:54:18.661Z,66.00
2022-09-16T14:57:06.567Z,66.50
2022-09-16T14:59:48.594Z,66.20
2022-09-16T15:06:08.936Z,66.10
2022-09-16T15:09:04.986Z,65.10
2022-09-16T15:11:48.473Z,65.60
2022-09-16T15:14:18.734Z,66.00
2022-09-16T15:17:20.434Z,66.60
2022-09-16T15:20:05.921Z,66.10
2022-09-16T15:22:48.827Z,66.50
2022-09-16T15:25:24.988Z,66.60
2022-09-16T15:27:55.188Z,66.90
2022-09-16T15:30:44.802Z,67.00
2022-09-16T15:34:05.730Z,66.60
2022-09-16T15:36:38.040Z,66.40
2022-09-16T15:39:25.305Z,66.80
2022-09-16T15:42:26.709Z,66.80
2022-09-16T15:45:14.055Z,67.20
2022-09-16T15:48:00.135Z,66.80
2022-09-16T15:50:53.124Z,65.60
2022-09-16T15:53:43.004Z,66.50
2022-09-16T15:56:58.254Z,67.10
2022-09-16T15:59:57.956Z,66.60
2022-09-16T16:02:56.861Z,66.00
2022-09-16T16:05:33.119Z,67.40
2022-09-16T16:08:50.478Z,67.00
2022-09-16T16:11:26.506Z,67.00
2022-09-16T16:14:01.777Z,65.20
2022-09-16T16:18:22.673Z,66.50
2022-09-16T16:21:15.009Z,66.60
2022-09-16T16:23:46.361Z,66.50
2022-09-16T16:29:15.841Z,66.00
2022-09-16T16:32:06.596Z,66.30
2022-09-16T16:35:06.297Z,67.40
2022-09-16T16:37:52.241Z,67.50
2022-09-16T16:40:24.501Z,67.50
2022-09-16T16:42:54.984Z,67.80
2022-09-16T16:45:23.261Z,67.80
2022-09-16T16:47:51.070Z,68.20
2022-09-16T16:50:30.524Z,67.70
2022-09-16T16:53:01.293Z,67.50
2022-09-16T16:55:56.193Z,68.20
2022-09-16T16:58:40.038Z,67.10
2022-09-16T17:01:18.507Z,67.20
2022-09-16T17:04:01.853Z,67.10
2022-09-16T17:06:37.563Z,67.30
2022-09-16T17:09:40.702Z,67.40
2022-09-16T17:15:10.771Z,68.60
2022-09-16T17:17:49.031Z,67.90
2022-09-16T17:20:17.794Z,67.50
2022-09-16T17:23:23.362Z,67.30
2022-09-16T17:26:05.487Z,67.40
2022-09-16T17:28:41.267Z,67.50
2022-09-16T17:31:45.460Z,67.60
2022-09-16T17:34:26.967Z,68.90
2022-09-16T17:37:08.105Z,68.30
2022-09-16T17:39:37.600Z,68.60
2022-09-16T17:42:13.978Z,69.00
2022-09-16T17:44:48.383Z,69.00
2022-09-16T17:47:31.954Z,68.70
2022-09-16T17:50:06.987Z,68.30
2022-09-16T17:52:47.945Z,68.50
2022-09-16T17:55:25.316Z,68.40
2022-09-16T17:58:38.627Z,68.40
2022-09-16T18:01:25.757Z,68.70
2022-09-16T18:04:07.166Z,69.00
2022-09-16T18:07:05.345Z,69.80
2022-09-16T18:09:34.578Z,69.40
2022-09-16T18:12:02.464Z,69.00
2022-09-16T18:14:33.646Z,69.10
2022-09-16T18:17:11.692Z,69.10
2022-09-16T18:19:47.417Z,69.20
2022-09-16T18:22:16.247Z,69.30
2022-09-16T18:24:54.172Z,69.30
2022-09-16T18:27:22.091Z,69.50
2022-09-16T18:29:56.565Z,69.50
2022-09-16T18:32:37.282Z,69.90
2022-09-16T18:35:08.843Z,70.30
2022-09-16T18:37:48.214Z,70.70
2022-09-16T18:40:16.809Z,70.10
2022-09-16T18:42:48.284Z,70.10
2022-09-16T18:48:21.828Z,70.20
2022-09-16T18:51:10.363Z,70.60
2022-09-16T18:53:57.380Z,70.80
2022-09-16T18:56:35.622Z,70.70
2022-09-16T18:59:22.964Z,70.80
2022-09-16T19:02:04.331Z,71.20
2022-09-16T19:04:44.729Z,71.70
2022-09-16T19:07:24.945Z,71.20
2022-09-16T19:09:59.152Z,71.50
2022-09-16T19:13:01.564Z,71.30
2022-09-16T19:15:33.179Z,71.40
2022-09-16T19:18:01.534Z,71.60
2022-09-16T19:20:43.149Z,71.70
2022-09-16T19:23:48.944Z,72.60
2022-09-16T19:26:39.153Z,72.70
2022-09-16T19:29:07.955Z,72.50
2022-09-16T19:31:54.394Z,72.70
2022-09-16T19:37:21.140Z,73.20
2022-09-16T19:40:04.275Z,73.40
2022-09-16T19:42:36.555Z,73.50
2022-09-16T19:45:08.126Z,73.70
2022-09-16T19:47:48.985Z,74.00
2022-09-16T19:50:46.338Z,74.30
2022-09-16T19:53:23.179Z,75.20
2022-09-16T19:56:23.606Z,75.10
2022-09-16T19:58:55.664Z,75.80
2022-09-16T20:01:48.895Z,75.60
2022-09-16T20:04:42.179Z,76.20
2022-09-16T20:10:02.611Z,76.00
2022-09-16T20:15:23.507Z,76.50
2022-09-16T20:17:52.006Z,76.40
2022-09-16T20:20:21.610Z,75.90
2022-09-16T20:22:54.062Z,76.00
2022-09-16T20:25:38.925Z,76.10
2022-09-16T20:28:37.632Z,76.10
2022-09-16T20:31:31.129Z,76.00
2022-09-16T20:34:04.267Z,75.60
2022-09-16T20:36:41.052Z,75.20
2022-09-16T20:39:16.280Z,75.20
2022-09-16T20:41:50.107Z,75.20
2022-09-16T20:44:18.011Z,75.20
2022-09-16T20:47:02.977Z,74.80
2022-09-16T20:49:38.497Z,75.00
2022-09-16T20:52:06.924Z,75.50
2022-09-16T20:57:24.844Z,75.30
2022-09-16T21:00:12.020Z,75.40
2022-09-16T21:02:42.170Z,76.00
2022-09-16T21:05:19.630Z,76.30
2022-09-16T21:07:47.591Z,76.90
2022-09-16T21:10:19.862Z,76.60
2022-09-16T21:12:51.947Z,76.70
2022-09-16T21:15:22.884Z,76.40
2022-09-16T21:17:57.314Z,76.30
2022-09-16T21:20:32.710Z,76.60
2022-09-16T21:23:19.558Z,76.90
2022-09-16T21:25:48.877Z,76.70
2022-09-16T21:28:19.300Z,76.60
2022-09-16T21:31:02.865Z,76.70
2022-09-16T21:33:42.063Z,76.80
2022-09-16T21:36:21.352Z,76.70
2022-09-16T21:39:33.193Z,77.00
2022-09-16T21:42:05.560Z,76.90
2022-09-16T21:44:33.331Z,76.80
2022-09-16T21:47:02.974Z,76.90
2022-09-16T21:49:44.007Z,77.20
2022-09-16T21:52:34.476Z,77.20
2022-09-16T21:55:05.716Z,77.30
2022-09-16T21:57:42.651Z,77.30
2022-09-16T22:00:14.059Z,78.00
2022-09-16T22:02:41.911Z,77.80
2022-09-16T22:05:36.262Z,78.60
2022-09-16T22:08:09.931Z,78.30
2022-09-16T22:10:46.676Z,78.40
2022-09-16T22:13:27.955Z,78.30
2022-09-16T22:15:56.246Z,78.50
2022-09-16T22:18:32.157Z,78.60
2022-09-16T22:21:07.125Z,78.60
2022-09-16T22:23:37.438Z,78.70
2022-09-16T22:26:11.534Z,78.80
2022-09-16T22:28:40.315Z,78.80
2022-09-16T22:31:29.889Z,78.80
2022-09-16T22:34:04.810Z,79.30
2022-09-16T22:36:38.138Z,79.10
2022-09-16T22:39:15.896Z,79.20
2022-09-16T22:41:47.337Z,79.50
2022-09-16T22:44:18.089Z,79.40
2022-09-16T22:46:50.526Z,79.50
2022-09-16T22:49:22.594Z,79.80
2022-09-16T22:52:03.149Z,79.80
2022-09-16T22:54:32.157Z,79.90
2022-09-16T22:57:02.647Z,81.30
2022-09-16T22:59:32.341Z,80.40
2022-09-16T23:02:13.525Z,80.10
2022-09-16T23:04:44.394Z,80.30
2022-09-16T23:07:13.029Z,80.10
2022-09-16T23:09:47.253Z,81.00
2022-09-16T23:12:23.307Z,79.80
2022-09-16T23:14:51.077Z,80.50
2022-09-16T23:17:33.422Z,80.20
2022-09-16T23:20:03.023Z,80.30
2022-09-16T23:22:41.299Z,80.60
2022-09-16T23:25:09.267Z,80.90
2022-09-16T23:27:42.888Z,81.00
2022-09-16T23:30:11.930Z,81.20
2022-09-16T23:32:43.950Z,81.20
2022-09-16T23:35:25.152Z,81.40
2022-09-16T23:38:00.777Z,81.40
2022-09-16T23:40:31.075Z,81.70
2022-09-16T23:43:09.549Z,81.70
2022-09-16T23:45:41.365Z,81.80
2022-09-16T23:48:19.882Z,81.90
2022-09-16T23:50:49.999Z,82.00
2022-09-16T23:53:19.685Z,82.00
2022-09-16T23:55:48.922Z,82.60
2022-09-16T23:58:20.881Z,82.00
